sensor_id;sensor_type;location;lat;lon;timestamp;pressure;altitude;pressure_sealevel;temperature;humidity
22651;BME280;11492;42.646;23.400;2024-02-14T00:01:08;94761.63;;;7.02;71.35
22651;BME280;11492;42.646;23.400;2024-02-14T00:03:34;94759.06;;;7.10;71.06
22651;BME280;11492;42.646;23.400;2024-02-14T00:06:03;94728.81;;;6.82;70.80
22651;BME280;11492;42.646;23.400;2024-02-14T00:08:29;94779.78;;;7.00;71.02
22651;BME280;11492;42.646;23.400;2024-02-14T00:10:55;94775.25;;;7.02;70.81
22651;BME280;11492;42.646;23.400;2024-02-14T00:13:21;94744.19;;;6.90;70.67
22651;BME280;11492;42.646;23.400;2024-02-14T00:15:46;94786.81;;;7.14;70.81
22651;BME280;11492;42.646;23.400;2024-02-14T00:18:13;94722.09;;;6.65;71.11
22651;BME280;11492;42.646;23.400;2024-02-14T00:20:40;94770.97;;;6.87;70.75
22651;BME280;11492;42.646;23.400;2024-02-14T00:23:06;94759.41;;;6.91;70.61
22651;BME280;11492;42.646;23.400;2024-02-14T00:25:32;94797.38;;;7.19;70.74
22651;BME280;11492;42.646;23.400;2024-02-14T00:27:57;94777.47;;;7.13;70.77
22651;BME280;11492;42.646;23.400;2024-02-14T00:30:26;94760.19;;;7.07;70.26
22651;BME280;11492;42.646;23.400;2024-02-14T00:32:52;94750.91;;;6.91;70.48
22651;BME280;11492;42.646;23.400;2024-02-14T00:35:18;94792.56;;;7.08;71.25
22651;BME280;11492;42.646;23.400;2024-02-14T00:37:43;94783.59;;;7.20;70.66
22651;BME280;11492;42.646;23.400;2024-02-14T00:40:09;94728.66;;;6.75;70.35
22651;BME280;11492;42.646;23.400;2024-02-14T00:42:36;94762.13;;;6.97;69.84
22651;BME280;11492;42.646;23.400;2024-02-14T00:45:02;94784.88;;;7.08;69.99
22651;BME280;11492;42.646;23.400;2024-02-14T00:47:28;94796.13;;;7.15;70.42
22651;BME280;11492;42.646;23.400;2024-02-14T00:49:54;94799.16;;;7.11;70.89
22651;BME280;11492;42.646;23.400;2024-02-14T00:52:20;94793.50;;;7.23;70.69
22651;BME280;11492;42.646;23.400;2024-02-14T00:54:47;94796.75;;;7.17;70.59
22651;BME280;11492;42.646;23.400;2024-02-14T00:57:13;94794.81;;;7.11;70.29
22651;BME280;11492;42.646;23.400;2024-02-14T00:59:38;94768.22;;;7.04;70.30
22651;BME280;11492;42.646;23.400;2024-02-14T01:02:04;94794.66;;;7.21;70.39
22651;BME280;11492;42.646;23.400;2024-02-14T01:04:30;94798.66;;;7.23;70.62
22651;BME280;11492;42.646;23.400;2024-02-14T01:06:56;94780.22;;;7.12;70.63
22651;BME280;11492;42.646;23.400;2024-02-14T01:09:22;94798.81;;;7.14;70.05
22651;BME280;11492;42.646;23.400;2024-02-14T01:11:47;94793.88;;;7.04;70.06
22651;BME280;11492;42.646;23.400;2024-02-14T01:14:14;94788.72;;;7.12;70.49
22651;BME280;11492;42.646;23.400;2024-02-14T01:16:44;94800.44;;;7.15;70.36
22651;BME280;11492;42.646;23.400;2024-02-14T01:19:10;94777.84;;;7.10;70.40
22651;BME280;11492;42.646;23.400;2024-02-14T01:21:36;94791.59;;;7.17;70.65
22651;BME280;11492;42.646;23.400;2024-02-14T01:24:02;94772.22;;;7.07;70.00
22651;BME280;11492;42.646;23.400;2024-02-14T01:26:29;94792.56;;;7.16;70.29
22651;BME280;11492;42.646;23.400;2024-02-14T01:28:54;94791.91;;;7.22;69.99
22651;BME280;11492;42.646;23.400;2024-02-14T01:31:20;94767.09;;;7.07;70.02
22651;BME280;11492;42.646;23.400;2024-02-14T01:33:46;94785.84;;;7.15;69.58
22651;BME280;11492;42.646;23.400;2024-02-14T01:36:12;94785.03;;;7.07;69.97
22651;BME280;11492;42.646;23.400;2024-02-14T01:38:37;94790.50;;;7.12;70.44
22651;BME280;11492;42.646;23.400;2024-02-14T01:41:04;94790.97;;;7.07;69.96
22651;BME280;11492;42.646;23.400;2024-02-14T01:43:30;94785.22;;;7.05;69.82
22651;BME280;11492;42.646;23.400;2024-02-14T01:46:06;94786.81;;;6.98;70.34
22651;BME280;11492;42.646;23.400;2024-02-14T01:48:33;94762.63;;;6.77;70.39
22651;BME280;11492;42.646;23.400;2024-02-14T01:51:00;94754.81;;;6.79;69.76
22651;BME280;11492;42.646;23.400;2024-02-14T01:53:27;94790.97;;;7.07;70.18
22651;BME280;11492;42.646;23.400;2024-02-14T01:55:56;94789.38;;;6.98;70.40
22651;BME280;11492;42.646;23.400;2024-02-14T01:58:22;94789.06;;;7.01;70.45
22651;BME280;11492;42.646;23.400;2024-02-14T02:00:48;94787.78;;;7.05;70.19
22651;BME280;11492;42.646;23.400;2024-02-14T02:03:14;94785.22;;;7.05;69.80
22651;BME280;11492;42.646;23.400;2024-02-14T02:05:41;94789.53;;;7.13;70.21
22651;BME280;11492;42.646;23.400;2024-02-14T02:08:10;94791.31;;;7.04;69.24
22651;BME280;11492;42.646;23.400;2024-02-14T02:10:36;94793.22;;;7.02;69.98
22651;BME280;11492;42.646;23.400;2024-02-14T02:13:03;94770.31;;;6.93;70.54
22651;BME280;11492;42.646;23.400;2024-02-14T02:15:29;94793.09;;;7.04;69.81
22651;BME280;11492;42.646;23.400;2024-02-14T02:17:54;94777.06;;;6.94;69.66
22651;BME280;11492;42.646;23.400;2024-02-14T02:20:21;94809.25;;;7.20;69.33
22651;BME280;11492;42.646;23.400;2024-02-14T02:22:47;94799.19;;;6.87;69.25
22651;BME280;11492;42.646;23.400;2024-02-14T02:25:14;94799.19;;;6.95;69.65
22651;BME280;11492;42.646;23.400;2024-02-14T02:27:39;94789.38;;;6.98;70.10
22651;BME280;11492;42.646;23.400;2024-02-14T02:30:06;94812.16;;;7.01;69.97
22651;BME280;11492;42.646;23.400;2024-02-14T02:32:32;94808.00;;;7.00;69.96
22651;BME280;11492;42.646;23.400;2024-02-14T02:34:58;94810.72;;;7.07;69.83
22651;BME280;11492;42.646;23.400;2024-02-14T02:37:25;94794.84;;;6.96;69.06
22651;BME280;11492;42.646;23.400;2024-02-14T02:39:51;94822.44;;;7.09;69.37
22651;BME280;11492;42.646;23.400;2024-02-14T02:42:18;94800.97;;;6.95;68.84
22651;BME280;11492;42.646;23.400;2024-02-14T02:44:46;94813.31;;;6.99;68.43
22651;BME280;11492;42.646;23.400;2024-02-14T02:47:13;94832.69;;;6.86;68.57
22651;BME280;11492;42.646;23.400;2024-02-14T02:49:38;94801.59;;;6.81;69.70
22651;BME280;11492;42.646;23.400;2024-02-14T02:52:05;94819.06;;;7.01;68.65
22651;BME280;11492;42.646;23.400;2024-02-14T02:54:31;94818.56;;;6.97;69.10
22651;BME280;11492;42.646;23.400;2024-02-14T02:56:56;94829.16;;;7.02;69.04
22651;BME280;11492;42.646;23.400;2024-02-14T02:59:24;94829.81;;;7.04;68.69
22651;BME280;11492;42.646;23.400;2024-02-14T03:01:49;94828.19;;;7.03;69.16
22651;BME280;11492;42.646;23.400;2024-02-14T03:04:15;94813.63;;;6.72;68.70
22651;BME280;11492;42.646;23.400;2024-02-14T03:06:41;94815.06;;;6.83;68.90
22651;BME280;11492;42.646;23.400;2024-02-14T03:09:09;94837.19;;;6.99;69.10
22651;BME280;11492;42.646;23.400;2024-02-14T03:11:34;94844.56;;;7.02;68.16
22651;BME280;11492;42.646;23.400;2024-02-14T03:14:02;94843.59;;;7.11;68.58
22651;BME280;11492;42.646;23.400;2024-02-14T03:16:28;94842.63;;;6.96;68.24
22651;BME280;11492;42.646;23.400;2024-02-14T03:18:55;94856.09;;;6.98;67.88
22651;BME280;11492;42.646;23.400;2024-02-14T03:21:20;94846.81;;;6.97;68.03
22651;BME280;11492;42.646;23.400;2024-02-14T03:23:46;94847.13;;;7.02;68.34
22651;BME280;11492;42.646;23.400;2024-02-14T03:26:12;94840.41;;;6.86;68.28
22651;BME280;11492;42.646;23.400;2024-02-14T03:28:38;94868.31;;;6.96;68.25
22651;BME280;11492;42.646;23.400;2024-02-14T03:31:04;94872.47;;;7.05;67.78
22651;BME280;11492;42.646;23.400;2024-02-14T03:33:30;94851.94;;;6.97;68.13
22651;BME280;11492;42.646;23.400;2024-02-14T03:35:55;94881.94;;;7.05;67.35
22651;BME280;11492;42.646;23.400;2024-02-14T03:38:25;94880.16;;;6.97;67.78
22651;BME280;11492;42.646;23.400;2024-02-14T03:40:52;94860.28;;;6.92;67.75
22651;BME280;11492;42.646;23.400;2024-02-14T03:43:18;94884.00;;;7.17;68.12
22651;BME280;11492;42.646;23.400;2024-02-14T03:45:43;94882.41;;;7.08;67.29
22651;BME280;11492;42.646;23.400;2024-02-14T03:48:11;94841.19;;;6.71;67.46
22651;BME280;11492;42.646;23.400;2024-02-14T03:50:40;94876.31;;;7.01;67.92
22651;BME280;11492;42.646;23.400;2024-02-14T03:53:06;94893.00;;;7.05;67.54
22651;BME280;11492;42.646;23.400;2024-02-14T03:55:32;94885.31;;;6.90;67.16
22651;BME280;11492;42.646;23.400;2024-02-14T03:57:58;94876.81;;;6.89;67.42
22651;BME280;11492;42.646;23.400;2024-02-14T04:00:23;94900.88;;;7.04;68.33
22651;BME280;11492;42.646;23.400;2024-02-14T04:02:49;94893.00;;;6.97;67.44
22651;BME280;11492;42.646;23.400;2024-02-14T04:05:17;94900.22;;;7.02;67.75
22651;BME280;11492;42.646;23.400;2024-02-14T04:07:43;94889.31;;;6.92;67.63
22651;BME280;11492;42.646;23.400;2024-02-14T04:10:14;94896.06;;;7.01;67.00
22651;BME280;11492;42.646;23.400;2024-02-14T04:12:40;94875.34;;;6.87;66.68
22651;BME280;11492;42.646;23.400;2024-02-14T04:15:06;94906.47;;;7.07;66.91
22651;BME280;11492;42.646;23.400;2024-02-14T04:17:32;94906.81;;;7.04;66.65
22651;BME280;11492;42.646;23.400;2024-02-14T04:19:58;94920.91;;;6.85;66.86
22651;BME280;11492;42.646;23.400;2024-02-14T04:22:23;94916.56;;;6.85;66.88
22651;BME280;11492;42.646;23.400;2024-02-14T04:24:49;94922.19;;;6.89;67.11
22651;BME280;11492;42.646;23.400;2024-02-14T04:27:14;94930.22;;;6.94;66.98
22651;BME280;11492;42.646;23.400;2024-02-14T04:29:40;94892.97;;;6.66;67.16
22651;BME280;11492;42.646;23.400;2024-02-14T04:32:06;94920.25;;;6.75;67.26
22651;BME280;11492;42.646;23.400;2024-02-14T04:34:32;94926.66;;;6.79;67.74
22651;BME280;11492;42.646;23.400;2024-02-14T04:36:58;94921.03;;;6.75;67.45
22651;BME280;11492;42.646;23.400;2024-02-14T04:39:24;94913.81;;;6.71;67.34
22651;BME280;11492;42.646;23.400;2024-02-14T04:41:50;94911.38;;;6.54;67.20
22651;BME280;11492;42.646;23.400;2024-02-14T04:44:16;94928.59;;;6.85;67.50
22651;BME280;11492;42.646;23.400;2024-02-14T04:46:42;94928.44;;;6.86;67.61
22651;BME280;11492;42.646;23.400;2024-02-14T04:49:09;94934.06;;;6.90;67.40
22651;BME280;11492;42.646;23.400;2024-02-14T04:51:35;94940.16;;;6.96;67.45
22651;BME280;11492;42.646;23.400;2024-02-14T04:54:01;94940.47;;;6.94;67.16
22651;BME280;11492;42.646;23.400;2024-02-14T04:56:27;94917.22;;;6.79;67.30
22651;BME280;11492;42.646;23.400;2024-02-14T04:58:53;94924.09;;;6.87;67.29
22651;BME280;11492;42.646;23.400;2024-02-14T05:01:20;94948.31;;;6.92;67.37
22651;BME280;11492;42.646;23.400;2024-02-14T05:03:46;94957.63;;;6.85;67.56
22651;BME280;11492;42.646;23.400;2024-02-14T05:06:12;94951.19;;;6.73;68.09
22651;BME280;11492;42.646;23.400;2024-02-14T05:08:37;94952.97;;;6.81;67.99
22651;BME280;11492;42.646;23.400;2024-02-14T05:11:03;94967.06;;;6.69;68.27
22651;BME280;11492;42.646;23.400;2024-02-14T05:13:30;94974.41;;;6.64;68.29
22651;BME280;11492;42.646;23.400;2024-02-14T05:15:56;94972.31;;;6.60;68.57
22651;BME280;11492;42.646;23.400;2024-02-14T05:18:22;94974.34;;;6.48;68.47
22651;BME280;11492;42.646;23.400;2024-02-14T05:20:48;94941.00;;;6.41;68.54
22651;BME280;11492;42.646;23.400;2024-02-14T05:23:15;94993.03;;;6.74;68.53
22651;BME280;11492;42.646;23.400;2024-02-14T05:25:43;94989.75;;;6.48;68.63
22651;BME280;11492;42.646;23.400;2024-02-14T05:28:09;94998.69;;;6.45;69.18
22651;BME280;11492;42.646;23.400;2024-02-14T05:30:42;94996.81;;;6.54;68.79
22651;BME280;11492;42.646;23.400;2024-02-14T05:33:08;94990.84;;;6.46;68.62
22651;BME280;11492;42.646;23.400;2024-02-14T05:35:34;95010.09;;;6.50;69.00
22651;BME280;11492;42.646;23.400;2024-02-14T05:38:00;94993.63;;;6.52;69.07
22651;BME280;11492;42.646;23.400;2024-02-14T05:40:25;95016.69;;;6.52;69.08
22651;BME280;11492;42.646;23.400;2024-02-14T05:42:51;95010.16;;;6.66;68.63
22651;BME280;11492;42.646;23.400;2024-02-14T05:45:17;95017.34;;;6.62;68.07
22651;BME280;11492;42.646;23.400;2024-02-14T05:47:43;95019.09;;;6.54;68.70
22651;BME280;11492;42.646;23.400;2024-02-14T05:50:09;95026.81;;;6.62;68.88
22651;BME280;11492;42.646;23.400;2024-02-14T05:52:37;95043.19;;;6.69;68.45
22651;BME280;11492;42.646;23.400;2024-02-14T05:55:04;95025.03;;;6.54;68.15
22651;BME280;11492;42.646;23.400;2024-02-14T05:57:31;95045.06;;;6.59;68.79
22651;BME280;11492;42.646;23.400;2024-02-14T05:59:57;95047.19;;;6.71;68.55
22651;BME280;11492;42.646;23.400;2024-02-14T06:02:23;95039.59;;;6.54;67.83
22651;BME280;11492;42.646;23.400;2024-02-14T06:04:48;95034.03;;;6.58;67.77
22651;BME280;11492;42.646;23.400;2024-02-14T06:07:14;95022.69;;;6.36;68.09
22651;BME280;11492;42.646;23.400;2024-02-14T06:09:40;95059.69;;;6.66;67.71
22651;BME280;11492;42.646;23.400;2024-02-14T06:12:06;95055.50;;;6.65;67.67
22651;BME280;11492;42.646;23.400;2024-02-14T06:14:32;95021.88;;;6.35;67.44
22651;BME280;11492;42.646;23.400;2024-02-14T06:17:00;95028.16;;;6.41;68.15
22651;BME280;11492;42.646;23.400;2024-02-14T06:19:27;95065.81;;;6.73;67.66
22651;BME280;11492;42.646;23.400;2024-02-14T06:21:53;95055.16;;;6.52;67.30
22651;BME280;11492;42.646;23.400;2024-02-14T06:24:19;95062.56;;;6.63;67.42
22651;BME280;11492;42.646;23.400;2024-02-14T06:26:45;95072.84;;;6.63;66.65
22651;BME280;11492;42.646;23.400;2024-02-14T06:29:11;95067.34;;;6.58;67.21
22651;BME280;11492;42.646;23.400;2024-02-14T06:31:37;95070.56;;;6.60;67.32
22651;BME280;11492;42.646;23.400;2024-02-14T06:34:03;95076.56;;;6.44;66.15
22651;BME280;11492;42.646;23.400;2024-02-14T06:36:28;95075.16;;;6.49;67.12
22651;BME280;11492;42.646;23.400;2024-02-14T06:38:54;95079.84;;;6.53;67.22
22651;BME280;11492;42.646;23.400;2024-02-14T06:41:21;95091.19;;;6.51;66.69
22651;BME280;11492;42.646;23.400;2024-02-14T06:43:47;95089.47;;;6.59;66.01
22651;BME280;11492;42.646;23.400;2024-02-14T06:46:13;95067.66;;;6.55;66.80
22651;BME280;11492;42.646;23.400;2024-02-14T06:48:38;95095.84;;;6.88;68.63
22651;BME280;11492;42.646;23.400;2024-02-14T06:51:06;95044.97;;;6.76;65.98
22651;BME280;11492;42.646;23.400;2024-02-14T06:53:32;95083.94;;;7.28;65.25
22651;BME280;11492;42.646;23.400;2024-02-14T06:55:58;95094.38;;;7.26;64.37
22651;BME280;11492;42.646;23.400;2024-02-14T06:58:23;95088.81;;;7.46;63.12
22651;BME280;11492;42.646;23.400;2024-02-14T07:00:49;95085.25;;;7.55;62.60
22651;BME280;11492;42.646;23.400;2024-02-14T07:03:15;95099.09;;;7.62;61.86
22651;BME280;11492;42.646;23.400;2024-02-14T07:05:41;95092.97;;;7.55;61.82
22651;BME280;11492;42.646;23.400;2024-02-14T07:08:07;95098.75;;;7.49;62.28
22651;BME280;11492;42.646;23.400;2024-02-14T07:10:33;95089.91;;;7.44;62.53
22651;BME280;11492;42.646;23.400;2024-02-14T07:12:59;95063.38;;;7.12;62.66
22651;BME280;11492;42.646;23.400;2024-02-14T07:15:24;95114.91;;;7.26;62.84
22651;BME280;11492;42.646;23.400;2024-02-14T07:17:54;95122.00;;;7.32;62.82
22651;BME280;11492;42.646;23.400;2024-02-14T07:20:21;95130.09;;;7.04;63.08
22651;BME280;11492;42.646;23.400;2024-02-14T07:22:46;95111.13;;;6.97;63.62
22651;BME280;11492;42.646;23.400;2024-02-14T07:25:19;95140.69;;;7.09;63.34
22651;BME280;11492;42.646;23.400;2024-02-14T07:27:45;95137.16;;;7.10;62.88
22651;BME280;11492;42.646;23.400;2024-02-14T07:30:13;95123.06;;;7.14;62.70
22651;BME280;11492;42.646;23.400;2024-02-14T07:32:39;95123.25;;;7.21;62.81
22651;BME280;11492;42.646;23.400;2024-02-14T07:35:05;95105.69;;;7.00;62.32
22651;BME280;11492;42.646;23.400;2024-02-14T07:37:32;95117.31;;;7.20;63.36
22651;BME280;11492;42.646;23.400;2024-02-14T07:39:58;95133.69;;;7.27;62.18
22651;BME280;11492;42.646;23.400;2024-02-14T07:42:23;95135.25;;;7.12;61.48
22651;BME280;11492;42.646;23.400;2024-02-14T07:44:49;95140.09;;;7.23;62.28
22651;BME280;11492;42.646;23.400;2024-02-14T07:47:15;95088.63;;;6.84;61.91
22651;BME280;11492;42.646;23.400;2024-02-14T07:49:40;95133.47;;;7.05;61.68
22651;BME280;11492;42.646;23.400;2024-02-14T07:52:06;95146.19;;;7.14;62.20
22651;BME280;11492;42.646;23.400;2024-02-14T07:54:32;95148.09;;;6.79;62.17
22651;BME280;11492;42.646;23.400;2024-02-14T07:56:58;95149.47;;;6.99;62.57
22651;BME280;11492;42.646;23.400;2024-02-14T07:59:23;95150.00;;;7.10;62.60
22651;BME280;11492;42.646;23.400;2024-02-14T08:01:49;95152.88;;;7.07;62.29
22651;BME280;11492;42.646;23.400;2024-02-14T08:04:15;95136.38;;;7.10;62.11
22651;BME280;11492;42.646;23.400;2024-02-14T08:06:41;95159.66;;;7.24;62.27
22651;BME280;11492;42.646;23.400;2024-02-14T08:09:06;95163.56;;;7.36;62.28
22651;BME280;11492;42.646;23.400;2024-02-14T08:11:35;95143.66;;;7.30;62.17
22651;BME280;11492;42.646;23.400;2024-02-14T08:14:02;95168.38;;;7.31;62.02
22651;BME280;11492;42.646;23.400;2024-02-14T08:16:28;95155.34;;;7.24;61.74
22651;BME280;11492;42.646;23.400;2024-02-14T08:18:53;95172.91;;;7.04;62.19
22651;BME280;11492;42.646;23.400;2024-02-14T08:21:27;95163.69;;;6.86;62.66
22651;BME280;11492;42.646;23.400;2024-02-14T08:23:54;95179.06;;;6.86;63.26
22651;BME280;11492;42.646;23.400;2024-02-14T08:26:21;95169.84;;;7.00;63.46
22651;BME280;11492;42.646;23.400;2024-02-14T08:28:51;95180.56;;;6.96;62.86
22651;BME280;11492;42.646;23.400;2024-02-14T08:31:16;95143.06;;;6.70;62.95
22651;BME280;11492;42.646;23.400;2024-02-14T08:33:42;95184.91;;;6.96;62.64
22651;BME280;11492;42.646;23.400;2024-02-14T08:36:08;95184.00;;;7.04;62.38
22651;BME280;11492;42.646;23.400;2024-02-14T08:38:34;95185.09;;;7.02;61.74
22651;BME280;11492;42.646;23.400;2024-02-14T08:41:03;95195.59;;;6.83;62.37
22651;BME280;11492;42.646;23.400;2024-02-14T08:43:30;95208.00;;;6.71;62.49
22651;BME280;11492;42.646;23.400;2024-02-14T08:45:57;95194.09;;;6.73;62.70
22651;BME280;11492;42.646;23.400;2024-02-14T08:48:23;95168.88;;;6.44;63.05
22651;BME280;11492;42.646;23.400;2024-02-14T08:50:49;95192.94;;;6.50;63.22
22651;BME280;11492;42.646;23.400;2024-02-14T08:53:15;95196.06;;;6.62;62.69
22651;BME280;11492;42.646;23.400;2024-02-14T08:55:41;95196.38;;;6.84;62.56
22651;BME280;11492;42.646;23.400;2024-02-14T08:58:06;95193.16;;;6.82;62.32
22651;BME280;11492;42.646;23.400;2024-02-14T09:00:37;95172.34;;;6.60;62.19
22651;BME280;11492;42.646;23.400;2024-02-14T09:03:05;95203.41;;;6.57;62.58
22651;BME280;11492;42.646;23.400;2024-02-14T09:05:31;95200.00;;;6.73;63.07
22651;BME280;11492;42.646;23.400;2024-02-14T09:07:57;95201.53;;;6.84;62.05
22651;BME280;11492;42.646;23.400;2024-02-14T09:10:22;95173.75;;;6.54;61.58
22651;BME280;11492;42.646;23.400;2024-02-14T09:12:48;95201.28;;;6.77;62.48
22651;BME280;11492;42.646;23.400;2024-02-14T09:15:14;95227.47;;;6.81;61.72
22651;BME280;11492;42.646;23.400;2024-02-14T09:17:40;95191.72;;;6.79;61.56
22651;BME280;11492;42.646;23.400;2024-02-14T09:20:08;95212.47;;;6.94;61.52
22651;BME280;11492;42.646;23.400;2024-02-14T09:22:38;95226.91;;;6.95;61.89
22651;BME280;11492;42.646;23.400;2024-02-14T09:25:07;95230.47;;;6.76;62.70
22651;BME280;11492;42.646;23.400;2024-02-14T09:27:35;95197.47;;;6.56;62.01
22651;BME280;11492;42.646;23.400;2024-02-14T09:30:01;95205.13;;;6.48;62.44
22651;BME280;11492;42.646;23.400;2024-02-14T09:32:30;95229.16;;;6.72;63.06
22651;BME280;11492;42.646;23.400;2024-02-14T09:34:56;95227.47;;;6.81;62.76
22651;BME280;11492;42.646;23.400;2024-02-14T09:37:22;95225.16;;;6.70;62.86
22651;BME280;11492;42.646;23.400;2024-02-14T09:39:49;95228.16;;;6.66;63.34
22651;BME280;11492;42.646;23.400;2024-02-14T09:42:16;95222.91;;;6.50;63.93
22651;BME280;11492;42.646;23.400;2024-02-14T09:44:45;95241.75;;;6.58;63.85
22651;BME280;11492;42.646;23.400;2024-02-14T09:47:13;95225.66;;;6.48;63.78
22651;BME280;11492;42.646;23.400;2024-02-14T09:49:40;95219.47;;;6.42;64.06
22651;BME280;11492;42.646;23.400;2024-02-14T09:52:08;95223.44;;;6.53;64.33
22651;BME280;11492;42.646;23.400;2024-02-14T09:54:35;95201.25;;;6.45;63.95
22651;BME280;11492;42.646;23.400;2024-02-14T09:57:04;95216.53;;;6.54;63.47
22651;BME280;11492;42.646;23.400;2024-02-14T09:59:32;95216.69;;;6.52;63.69
22651;BME280;11492;42.646;23.400;2024-02-14T10:01:58;95191.28;;;6.42;62.93
22651;BME280;11492;42.646;23.400;2024-02-14T10:04:23;95233.97;;;6.68;63.07
22651;BME280;11492;42.646;23.400;2024-02-14T10:06:50;95213.78;;;6.30;63.20
22651;BME280;11492;42.646;23.400;2024-02-14T10:09:23;95219.00;;;6.38;63.01
22651;BME280;11492;42.646;23.400;2024-02-14T10:11:51;95218.78;;;6.57;64.02
22651;BME280;11492;42.646;23.400;2024-02-14T10:14:16;95222.84;;;6.59;63.31
22651;BME280;11492;42.646;23.400;2024-02-14T10:16:42;95180.97;;;6.34;62.23
22651;BME280;11492;42.646;23.400;2024-02-14T10:19:18;95217.63;;;6.51;62.98
22651;BME280;11492;42.646;23.400;2024-02-14T10:21:44;95226.84;;;6.62;62.80
22651;BME280;11492;42.646;23.400;2024-02-14T10:24:20;95198.88;;;6.51;63.37
22651;BME280;11492;42.646;23.400;2024-02-14T10:26:45;95232.91;;;6.78;63.13
22651;BME280;11492;42.646;23.400;2024-02-14T10:29:11;95220.66;;;6.72;62.87
22651;BME280;11492;42.646;23.400;2024-02-14T10:31:37;95226.38;;;6.83;62.91
22651;BME280;11492;42.646;23.400;2024-02-14T10:34:04;95225.97;;;6.96;62.54
22651;BME280;11492;42.646;23.400;2024-02-14T10:36:31;95217.47;;;7.03;62.83
22651;BME280;11492;42.646;23.400;2024-02-14T10:39:00;95217.88;;;7.16;61.96
22651;BME280;11492;42.646;23.400;2024-02-14T10:41:30;95214.13;;;7.02;61.79
22651;BME280;11492;42.646;23.400;2024-02-14T10:44:02;95218.19;;;7.13;61.12
22651;BME280;11492;42.646;23.400;2024-02-14T10:46:31;95184.00;;;6.79;61.69
22651;BME280;11492;42.646;23.400;2024-02-14T10:49:04;95191.78;;;6.95;61.74
22651;BME280;11492;42.646;23.400;2024-02-14T10:51:35;95167.19;;;6.85;61.92
22651;BME280;11492;42.646;23.400;2024-02-14T10:54:04;95210.53;;;7.21;61.47
22651;BME280;11492;42.646;23.400;2024-02-14T10:56:32;95209.94;;;7.01;60.53
22651;BME280;11492;42.646;23.400;2024-02-14T10:58:58;95227.13;;;7.09;60.07
22651;BME280;11492;42.646;23.400;2024-02-14T11:01:27;95215.47;;;7.14;60.27
22651;BME280;11492;42.646;23.400;2024-02-14T11:03:58;95235.34;;;7.12;60.54
22651;BME280;11492;42.646;23.400;2024-02-14T11:06:24;95219.72;;;7.31;59.69
22651;BME280;11492;42.646;23.400;2024-02-14T11:08:59;95226.38;;;7.16;60.10
22651;BME280;11492;42.646;23.400;2024-02-14T11:11:28;95222.53;;;6.87;60.12
22651;BME280;11492;42.646;23.400;2024-02-14T11:13:55;95221.09;;;6.85;60.50
22651;BME280;11492;42.646;23.400;2024-02-14T11:16:28;95213.75;;;6.97;60.56
22651;BME280;11492;42.646;23.400;2024-02-14T11:19:14;95222.16;;;7.07;59.96
22651;BME280;11492;42.646;23.400;2024-02-14T11:21:46;95199.34;;;6.96;60.27
22651;BME280;11492;42.646;23.400;2024-02-14T11:24:14;95196.81;;;7.04;59.62
22651;BME280;11492;42.646;23.400;2024-02-14T11:26:50;95172.09;;;7.03;59.38
22651;BME280;11492;42.646;23.400;2024-02-14T11:29:17;95192.69;;;7.19;59.29
22651;BME280;11492;42.646;23.400;2024-02-14T11:31:44;95211.06;;;7.32;58.48
22651;BME280;11492;42.646;23.400;2024-02-14T11:34:16;95215.28;;;7.48;59.35
22651;BME280;11492;42.646;23.400;2024-02-14T11:36:43;95185.72;;;7.45;59.56
22651;BME280;11492;42.646;23.400;2024-02-14T11:39:09;95188.69;;;7.57;59.39
22651;BME280;11492;42.646;23.400;2024-02-14T11:41:38;95203.00;;;7.75;57.39
22651;BME280;11492;42.646;23.400;2024-02-14T11:44:04;95208.97;;;7.92;60.80
22651;BME280;11492;42.646;23.400;2024-02-14T11:46:31;95206.91;;;7.87;56.82
22651;BME280;11492;42.646;23.400;2024-02-14T11:49:01;95202.03;;;7.69;57.72
22651;BME280;11492;42.646;23.400;2024-02-14T11:51:28;95213.97;;;7.93;58.73
22651;BME280;11492;42.646;23.400;2024-02-14T11:53:54;95210.59;;;7.93;57.72
22651;BME280;11492;42.646;23.400;2024-02-14T11:56:24;95194.47;;;7.67;56.84
22651;BME280;11492;42.646;23.400;2024-02-14T11:58:51;95212.13;;;7.70;56.95
22651;BME280;11492;42.646;23.400;2024-02-14T12:01:18;95207.63;;;7.64;58.22
22651;BME280;11492;42.646;23.400;2024-02-14T12:03:44;95209.56;;;7.70;58.05
22651;BME280;11492;42.646;23.400;2024-02-14T12:06:10;95202.53;;;7.72;57.94
22651;BME280;11492;42.646;23.400;2024-02-14T12:08:37;95214.44;;;7.89;57.81
22651;BME280;11492;42.646;23.400;2024-02-14T12:11:03;95159.41;;;7.43;56.71
22651;BME280;11492;42.646;23.400;2024-02-14T12:13:30;95204.38;;;7.46;56.63
22651;BME280;11492;42.646;23.400;2024-02-14T12:16:03;95204.84;;;7.50;56.97
22651;BME280;11492;42.646;23.400;2024-02-14T12:18:32;95182.31;;;7.28;57.42
22651;BME280;11492;42.646;23.400;2024-02-14T12:21:06;95206.81;;;7.15;57.95
22651;BME280;11492;42.646;23.400;2024-02-14T12:23:35;95200.44;;;7.27;57.77
22651;BME280;11492;42.646;23.400;2024-02-14T12:26:02;95175.72;;;7.26;58.21
22651;BME280;11492;42.646;23.400;2024-02-14T12:28:30;95195.44;;;7.74;59.15
22651;BME280;11492;42.646;23.400;2024-02-14T12:30:59;95197.09;;;7.91;57.29
22651;BME280;11492;42.646;23.400;2024-02-14T12:33:26;95194.75;;;7.48;57.20
22651;BME280;11492;42.646;23.400;2024-02-14T12:35:54;95172.56;;;7.40;57.39
22651;BME280;11492;42.646;23.400;2024-02-14T12:38:20;95187.94;;;7.88;58.07
22651;BME280;11492;42.646;23.400;2024-02-14T12:40:46;95182.81;;;7.88;58.13
22651;BME280;11492;42.646;23.400;2024-02-14T12:43:13;95194.84;;;7.95;57.20
22651;BME280;11492;42.646;23.400;2024-02-14T12:45:40;95193.72;;;7.90;57.41
22651;BME280;11492;42.646;23.400;2024-02-14T12:48:07;95188.38;;;7.68;57.05
22651;BME280;11492;42.646;23.400;2024-02-14T12:50:38;95195.13;;;7.69;56.66
22651;BME280;11492;42.646;23.400;2024-02-14T12:53:07;95201.06;;;7.62;57.50
22651;BME280;11492;42.646;23.400;2024-02-14T12:55:33;95204.09;;;7.57;58.09
22651;BME280;11492;42.646;23.400;2024-02-14T12:57:59;95206.69;;;7.73;57.48